Current | Forecast
Updated: 11:30 PM +10 on June 25, 2017
Observed at Vladivostok, Russia
Temperature 54°F
Humidity 88%
Dew Point 50°F
Wind SSW at 9 mph
Pressure 29.83 in (Steady)
Conditions Overcast
Visibility 6.2 miles
UV 0 out of 16
Clouds Overcast (OVC) : 1300 ft
Yesterday's Maximum 88°F
Yesterday's Minimum 57°F approx.
Yesterday's Cooling Degree Days 8 approx.
Sunrise5:31 AM +10
Sunset8:52 PM +10
Moon Rise6:41 AM +10
Moon Set9:46 PM +10
Moon PhaseMoon Phase
Waxing Crescent
Raw METARMETAR UHWW 251330Z 21004MPS 9999 OVC013 12/10 Q1010 R25L/0///70 NOSIG RMK QFE756


Monday
. High: 69° F.
Tuesday
. High: 57° F.
Wednesday
. High: 66° F.
Thursday
. High: 62° F.
Friday
. High: 66° F.
Saturday
. High: 62° F.
Sunday
. High: 59° F.
Monday
. High: 62° F.

Units: English | Metric

Find the Weather for any City, State or Zipcode, or Country:

U.S. State List | Severe Weather | Tropical Storms | Ski Conditions
United States | Canada | Central America | South America | Asia | Europe | Australia | Africa | Islands

Weather Underground

© Copyright 2017
The Weather Company, LLC